LFBH/LRH METAR and TAF weather

Enter ICAO airport designator
Station Type Date Time Source
LFBH METAR 2019/08/19 22:30 UTC NOAA

LFBH 192230Z AUTO 35011KT CAVOK 17/13 Q1023 NOSIG


Station Type Date Time Source
LFBH Decoded METAR 2019/08/19 22:30 UTC NOAA

La Rochelle, France (LFBH) 46-09N 001-09W 10M
Aug 19, 2019 - 06:30 PM EDT / 2019.08.19 2230 UTC
Wind: from the N (350 degrees) at 13 MPH (11 KT):0
Visibility: greater than 7 mile(s):0
Temperature: 62 F (17 C)
Dew Point: 55 F (13 C)
Relative Humidity: 77%
Pressure (altimeter): 30.21 in. Hg (1023 hPa)
ob: LFBH 192230Z AUTO 35011KT CAVOK 17/13 Q1023 NOSIG
cycle: 22

Station Type Date Time Source
LFBH TAF 2019/08/19 18:21 UTC NOAA

TAF LFBH 191700Z 1918/2018 31012KT CAVOK
BECMG 2000/2003 02005KT
BECMG 2012/2015 30015G25KT

Example: see airport list